This is the latest recevied weather packets stored in our database for station/object XE2AD-5. If no packets are shown the sender has not sent any weather packets the latest 10 day(s).
| Time | Temp. | Humidity | Pressure | Rain* | Wind** | Luminosity | Snow |
|---|---|---|---|---|---|---|---|
| 1777501214 | 30° C | 22% | 804.3 hPa | - | - | - | - |
| 1777497914 | 29.44° C | 22% | 805 hPa | - | - | - | - |
| 1777494614 | 28.89° C | 24% | 805.9 hPa | - | - | - | - |
| 1777491314 | 28.33° C | 24% | 806.5 hPa | - | - | - | - |
| 1777488014 | 27.78° C | 25% | 807.5 hPa | - | - | - | - |
| 1777484714 | 27.78° C | 26% | 808.3 hPa | - | - | - | - |
| 1777481413 | 27.22° C | 26% | 808.7 hPa | - | - | - | - |
| 1777478113 | 27.22° C | 25% | 809.1 hPa | - | - | - | - |
| 1777474813 | 27.22° C | 25% | 809.1 hPa | - | - | - | - |
| 1777471513 | 27.22° C | 25% | 808.8 hPa | - | - | - | - |
| 1777468213 | 27.78° C | 26% | 808.5 hPa | - | - | - | - |
| 1777464913 | 27.78° C | 24% | 808.1 hPa | - | - | - | - |
| 1777461612 | 28.33° C | 25% | 807.4 hPa | - | - | - | - |
| 1777458312 | 28.33° C | 25% | 807.5 hPa | - | - | - | - |
| 1777455012 | 28.89° C | 24% | 807.4 hPa | - | - | - | - |
| 1777451712 | 28.89° C | 24% | 807.5 hPa | - | - | - | - |
| 1777448412 | 29.44° C | 23% | 807.9 hPa | - | - | - | - |
| 1777445111 | 29.44° C | 23% | 808.3 hPa | - | - | - | - |
| 1777441811 | 29.44° C | 22% | 808.2 hPa | - | - | - | - |
| 1777438511 | 30° C | 21% | 808.2 hPa | - | - | - | - |
| 1777435211 | 30° C | 19% | 807.6 hPa | - | - | - | - |
| 1777431911 | 30° C | 19% | 806.7 hPa | - | - | - | - |
| 1777428611 | 30.56° C | 22% | 806.3 hPa | - | - | - | - |
| 1777425310 | 30.56° C | 23% | 805.9 hPa | - | - | - | - |
| 1777422010 | 30.56° C | 24% | 805.5 hPa | - | - | - | - |
* Rain since midnight (hover to see other rain measurements)
** Current wind speed in m/s (hover to see current wind gust speed)